Pine Mountain Club, CA (93222)

2:42 AM PDT on September 23, 2014 (GMT -0700)
Pine Mountain Club- Glacier | Change Station
CLOSE
Current Station
Personal Weather Station
Location: Pine Mountain Club, CA
Elevation: 5456 ft
Nearby Weather Stations

Elev 5456 ft 34.85 °N, 119.13 °W | Updated 7 seconds ago

Clear
Clear
52.8 °F
Feels Like 52.8 °F
N
1.5
Wind Variable Wind from South
Gusts 3.6 mph

Today
High -- | Low -- °F
--% Chance of Precip.
Yesterday
High -- | Low -- °F
Precip. -- in
6:45 AM 6:51 PM
Waning Crescent, 1% visible
Pressure 29.96 in
Visibility 10.0 miles
Clouds Clear
Dew Point 30 °F
Humidity 41%
Rainfall -999.00 in
Snow Depth 3 in , 1 in , 0 in
UV 0 out of 12
Pollen 6.80 out of 12
PM2.5 Moderate
Flu Activity Not available.
METAR KSDB 230848Z AUTO 28011KT 10SM CLR 20/05 A3015 RMK AO2 SLP146 T02000050 58001

More Conditions Fewer Conditions

Pressure 29.96 in
Visibility 10.0 miles
Clouds Clear
Dew Point 30 °F
Humidity 41%
Rainfall -999.00 in
Snow Depth 3 in , 1 in , 0 in
UV 0 out of 12
Pollen 6.80 out of 12
PM2.5 Moderate
Flu Activity Not available.
METAR KSDB 230848Z AUTO 28011KT 10SM CLR 20/05 A3015 RMK AO2 SLP146 T02000050 58001

More Conditions Fewer Conditions

10-Day Weather Forecast

Almanac

Astronomy

Sep. 23, 2014 Rise Set
Actual Time 6:45 AM PDT 6:51 PM PDT
Civil Twilight 6:19 AM PDT 7:16 PM PDT
Nautical Twilight 5:50 AM PDT 7:45 PM PDT
Astronomical Twilight 5:20 AM PDT 8:15 PM PDT
Moon 6:14 AM PDT 6:33 PM PDT
Length of Visible Light 12h 56m
Length of Day
12h 06m
Tomorrow will be 2m 10s shorter.
Waning Crescent, 1% of the Moon is Illuminated
Today
Waning Crescent
Sep 24
New
Oct 1
First Quarter
Oct 8
Full
Oct 15
Last Quarter

Today's Extremes

State Highs State Lows

Community

WunderPhotos

Upload Photos

1,755,644 photos uploaded!

Nearby

Air Quality

  Air Quality AQ Index Pollutant
Yesterday Moderate
OZONE
Yesterday Good
PM2.5
Current Moderate
PM2.5
Tuesday Moderate
OZONE
Wednesday Moderate
OZONE
Thursday Moderate
OZONE
Friday Moderate
OZONE
Saturday Moderate
OZONE

Snow Depth

Station Depth Elevation
CSS Lab 3 in 6900 ft
Summit Meadow 1 in 9122 ft
Squaw Valley 0 in 8200 ft
Spratt Creek 1 in 6200 ft
Sonora Pass 0 in 8800 ft

Earthquake Activity

City Distance Mag. Time & Date
Inyokern, California 107 miles 3.1 5:33 PM PDT
2014-09-19
Minimum magnitude displayed is 2.5.

Coastal Water Temperatures

Place Temperature
No Stations Reporting

Nearby Weather Stations